createdAt,value
2022-12-22T00:01:27.160Z,16.65
2022-12-22T00:02:55.354Z,17.73
2022-12-22T00:04:16.471Z,17.35
2022-12-22T00:05:38.594Z,17.00
2022-12-22T00:07:06.173Z,14.13
2022-12-22T00:08:35.170Z,16.42
2022-12-22T00:09:56.112Z,16.35
2022-12-22T00:11:18.213Z,15.27
2022-12-22T00:12:39.466Z,15.48
2022-12-22T00:14:08.194Z,15.93
2022-12-22T00:15:39.169Z,16.70
2022-12-22T00:17:00.425Z,14.00
2022-12-22T00:18:21.821Z,13.50
2022-12-22T00:19:49.189Z,14.88
2022-12-22T00:21:10.347Z,14.57
2022-12-22T00:22:32.203Z,15.18
2022-12-22T00:23:54.826Z,14.65
2022-12-22T00:25:22.207Z,14.35
2022-12-22T00:26:43.565Z,14.63
2022-12-22T00:28:05.033Z,14.82
2022-12-22T00:29:33.092Z,13.95
2022-12-22T00:31:08.229Z,14.10
2022-12-22T00:32:32.556Z,13.73
2022-12-22T00:33:53.542Z,14.50
2022-12-22T00:35:14.684Z,13.73
2022-12-22T00:36:42.180Z,13.80
2022-12-22T00:38:03.429Z,13.95
2022-12-22T00:39:30.049Z,13.95
2022-12-22T00:40:58.246Z,13.38
2022-12-22T00:42:19.340Z,13.65
2022-12-22T00:43:40.251Z,13.00
2022-12-22T00:45:01.380Z,13.88
2022-12-22T00:46:29.351Z,13.90
2022-12-22T00:47:57.230Z,13.98
2022-12-22T00:49:18.419Z,13.32
2022-12-22T00:50:41.648Z,13.30
2022-12-22T00:52:02.856Z,13.68
2022-12-22T00:53:31.231Z,13.63
2022-12-22T00:54:53.782Z,14.20
2022-12-22T00:56:14.871Z,15.30
2022-12-22T00:57:37.212Z,14.68
2022-12-22T00:59:05.255Z,14.55
2022-12-22T01:00:29.415Z,15.82
2022-12-22T01:01:50.700Z,14.90
2022-12-22T01:03:11.930Z,15.10
2022-12-22T01:04:40.207Z,15.07
2022-12-22T01:06:01.154Z,15.02
2022-12-22T01:07:22.303Z,16.05
2022-12-22T01:08:43.043Z,15.13
2022-12-22T01:10:15.222Z,15.05
2022-12-22T01:11:43.245Z,15.07
2022-12-22T01:13:04.434Z,15.15
2022-12-22T01:14:27.780Z,14.82
2022-12-22T01:15:49.259Z,15.57
2022-12-22T01:17:16.210Z,15.15
2022-12-22T01:18:37.424Z,15.57
2022-12-22T01:19:58.600Z,15.85
2022-12-22T01:21:26.228Z,16.17
2022-12-22T01:22:48.130Z,16.00
2022-12-22T01:24:09.404Z,17.10
2022-12-22T01:25:32.877Z,16.63
2022-12-22T01:27:00.539Z,16.95
2022-12-22T01:28:28.033Z,16.35
2022-12-22T01:29:55.762Z,17.60
2022-12-22T01:31:17.558Z,16.83
2022-12-22T01:32:45.206Z,16.65
2022-12-22T01:34:06.474Z,16.52
2022-12-22T01:35:33.247Z,15.93
2022-12-22T01:36:54.105Z,16.88
2022-12-22T01:38:22.212Z,17.05
2022-12-22T01:39:43.179Z,16.58
2022-12-22T01:41:05.694Z,17.17
2022-12-22T01:42:27.918Z,17.27
2022-12-22T01:43:56.226Z,16.60
2022-12-22T01:45:20.459Z,16.25
2022-12-22T01:46:42.902Z,16.17
2022-12-22T01:48:04.090Z,16.88
2022-12-22T01:49:34.271Z,16.10
2022-12-22T01:50:55.717Z,17.08
2022-12-22T01:52:17.046Z,17.40
2022-12-22T01:53:39.307Z,17.70
2022-12-22T01:55:07.289Z,18.17
2022-12-22T01:56:29.966Z,17.58
2022-12-22T01:57:51.244Z,17.15
2022-12-22T01:59:14.138Z,18.02
2022-12-22T02:00:42.220Z,18.15
2022-12-22T02:02:03.555Z,17.08
2022-12-22T02:03:34.076Z,18.02
2022-12-22T02:04:56.154Z,17.13
2022-12-22T02:06:27.234Z,16.50
2022-12-22T02:07:57.275Z,17.08
2022-12-22T02:09:22.612Z,16.95
2022-12-22T02:10:52.754Z,16.33
2022-12-22T02:12:28.196Z,16.75
2022-12-22T02:13:54.507Z,15.70
2022-12-22T02:15:20.855Z,15.70
2022-12-22T02:16:46.392Z,15.82
2022-12-22T02:18:18.224Z,15.85
2022-12-22T02:19:45.084Z,16.77
2022-12-22T02:21:08.526Z,16.00
2022-12-22T02:22:39.238Z,16.17
2022-12-22T02:24:18.370Z,17.45
2022-12-22T02:25:42.125Z,15.02
2022-12-22T02:27:07.345Z,16.40
2022-12-22T02:28:36.566Z,15.70
2022-12-22T02:30:06.102Z,16.63
2022-12-22T02:31:27.369Z,17.17
2022-12-22T02:32:52.984Z,17.30
2022-12-22T02:34:21.210Z,15.48
2022-12-22T02:35:49.259Z,15.82
2022-12-22T02:37:14.021Z,16.98
2022-12-22T02:38:39.277Z,16.05
2022-12-22T02:40:04.440Z,16.10
2022-12-22T02:41:38.209Z,17.35
2022-12-22T02:43:10.371Z,16.15
2022-12-22T02:44:37.721Z,16.38
2022-12-22T02:46:11.245Z,17.85
2022-12-22T02:47:36.830Z,17.98
2022-12-22T02:49:00.095Z,18.02
2022-12-22T02:50:24.028Z,17.85
2022-12-22T02:51:53.198Z,19.25
2022-12-22T02:53:14.747Z,20.10
2022-12-22T02:54:36.886Z,16.63
2022-12-22T02:55:58.136Z,19.05
2022-12-22T02:57:28.212Z,19.20
2022-12-22T02:58:52.067Z,19.55
2022-12-22T03:00:13.059Z,20.00
2022-12-22T03:01:40.397Z,20.67
2022-12-22T03:03:01.885Z,21.00
2022-12-22T03:04:23.516Z,21.20
2022-12-22T03:05:44.537Z,20.85
2022-12-22T03:07:12.249Z,19.73
2022-12-22T03:08:40.220Z,20.92
2022-12-22T03:10:04.717Z,19.48
2022-12-22T03:11:26.022Z,20.42
2022-12-22T03:12:47.141Z,19.92
2022-12-22T03:14:16.235Z,19.55
2022-12-22T03:15:40.149Z,19.40
2022-12-22T03:17:01.066Z,18.40
2022-12-22T03:18:29.226Z,18.83
2022-12-22T03:19:50.483Z,18.02
2022-12-22T03:21:18.241Z,18.77
2022-12-22T03:22:39.617Z,18.50
2022-12-22T03:24:00.771Z,17.98
2022-12-22T03:25:28.192Z,18.67
2022-12-22T03:26:33.556Z,18.42
2022-12-22T03:27:36.089Z,18.83
2022-12-22T03:29:00.218Z,20.92
2022-12-22T03:30:10.243Z,18.90
2022-12-22T03:31:14.158Z,20.40
2022-12-22T03:32:16.769Z,19.95
2022-12-22T03:33:20.224Z,18.92
2022-12-22T03:34:23.051Z,20.15
2022-12-22T03:35:33.256Z,20.33
2022-12-22T03:36:36.658Z,21.15
2022-12-22T03:37:39.110Z,20.63
2022-12-22T03:38:42.534Z,20.23
2022-12-22T03:39:45.038Z,20.05
2022-12-22T03:40:55.207Z,19.98
2022-12-22T03:42:16.193Z,20.35
2022-12-22T03:43:44.206Z,20.10
2022-12-22T03:45:05.311Z,20.27
2022-12-22T03:46:30.377Z,20.13
2022-12-22T03:47:40.207Z,18.80
2022-12-22T03:48:49.308Z,20.42
2022-12-22T03:49:52.705Z,19.45
2022-12-22T03:50:55.177Z,20.10
2022-12-22T03:52:05.313Z,20.50
2022-12-22T03:53:07.877Z,21.48
2022-12-22T03:54:12.022Z,19.52
2022-12-22T03:55:21.234Z,20.90
2022-12-22T03:56:31.209Z,20.63
2022-12-22T03:57:34.618Z,20.50
2022-12-22T03:58:37.217Z,18.80
2022-12-22T03:59:40.668Z,20.50
2022-12-22T04:00:43.222Z,19.35
2022-12-22T04:01:55.436Z,19.98
2022-12-22T04:02:58.955Z,20.20
2022-12-22T04:04:02.494Z,20.73
2022-12-22T04:05:05.300Z,20.67
2022-12-22T04:06:15.258Z,20.10
2022-12-22T04:07:19.375Z,19.95
2022-12-22T04:08:21.896Z,19.73
2022-12-22T04:09:27.342Z,20.17
2022-12-22T04:10:48.481Z,20.38
2022-12-22T04:12:16.279Z,20.23
2022-12-22T04:13:18.763Z,18.83
2022-12-22T04:14:24.482Z,20.05
2022-12-22T04:15:31.491Z,20.23
2022-12-22T04:16:41.408Z,18.80
2022-12-22T04:17:45.276Z,20.00
2022-12-22T04:18:48.789Z,19.48
2022-12-22T04:19:52.328Z,19.52
2022-12-22T04:20:54.828Z,19.92
2022-12-22T04:22:05.269Z,20.15
2022-12-22T04:23:14.250Z,19.80
2022-12-22T04:24:24.245Z,18.52
2022-12-22T04:25:27.259Z,19.90
2022-12-22T04:26:30.909Z,20.88
2022-12-22T04:27:33.420Z,20.75
2022-12-22T04:28:57.241Z,19.35
2022-12-22T04:30:06.245Z,20.55
2022-12-22T04:31:09.660Z,20.75
2022-12-22T04:32:12.190Z,19.73
2022-12-22T04:33:16.917Z,19.77
2022-12-22T04:34:26.217Z,20.98
2022-12-22T04:35:29.661Z,20.10
2022-12-22T04:36:33.108Z,20.73
2022-12-22T04:37:42.256Z,20.08
2022-12-22T04:38:45.841Z,20.05
2022-12-22T04:39:48.310Z,20.05
2022-12-22T04:40:51.717Z,20.40
2022-12-22T04:41:55.103Z,20.15
2022-12-22T04:43:04.262Z,19.67
2022-12-22T04:44:07.841Z,21.40
2022-12-22T04:45:10.674Z,21.15
2022-12-22T04:46:14.273Z,21.40
2022-12-22T04:47:16.831Z,21.77
2022-12-22T04:48:28.260Z,21.48
2022-12-22T04:49:30.783Z,21.85
2022-12-22T04:50:34.203Z,21.85
2022-12-22T04:51:36.741Z,22.15
2022-12-22T04:52:40.194Z,22.35
2022-12-22T04:53:49.221Z,21.90
2022-12-22T04:54:53.002Z,22.35
2022-12-22T04:56:03.254Z,21.63
2022-12-22T04:57:06.854Z,21.95
2022-12-22T04:58:09.335Z,22.70
2022-12-22T04:59:19.220Z,21.80
2022-12-22T05:00:28.730Z,21.13
2022-12-22T05:01:32.310Z,20.35
2022-12-22T05:02:35.009Z,21.02
2022-12-22T05:03:39.971Z,21.70
2022-12-22T05:04:42.531Z,21.55
2022-12-22T05:05:52.360Z,21.98
2022-12-22T05:07:01.290Z,21.85
2022-12-22T05:08:04.924Z,21.08
2022-12-22T05:09:07.391Z,21.50
2022-12-22T05:10:11.465Z,21.45
2022-12-22T05:11:14.981Z,22.85
2022-12-22T05:12:42.232Z,21.23
2022-12-22T05:13:45.644Z,19.83
2022-12-22T05:14:48.151Z,19.98
2022-12-22T05:15:51.571Z,19.05
2022-12-22T05:16:54.311Z,20.55
2022-12-22T05:18:04.232Z,20.73
2022-12-22T05:19:09.224Z,19.35
2022-12-22T05:20:11.916Z,19.83
2022-12-22T05:21:23.241Z,21.83
2022-12-22T05:22:32.270Z,21.60
2022-12-22T05:23:35.827Z,21.90
2022-12-22T05:24:38.405Z,21.05
2022-12-22T05:25:41.851Z,20.73
2022-12-22T05:26:44.366Z,21.33
2022-12-22T05:27:55.260Z,20.67
2022-12-22T05:29:19.201Z,21.15
2022-12-22T05:30:21.770Z,20.63
2022-12-22T05:31:26.222Z,19.45
2022-12-22T05:32:28.778Z,21.20
2022-12-22T05:33:38.256Z,20.08
2022-12-22T05:34:42.057Z,20.50
2022-12-22T05:35:45.484Z,21.10
2022-12-22T05:36:48.019Z,21.02
2022-12-22T05:37:58.229Z,20.80
2022-12-22T05:39:00.733Z,20.35
2022-12-22T05:40:11.225Z,19.27
2022-12-22T05:41:14.087Z,19.38
2022-12-22T05:42:35.853Z,19.10
2022-12-22T05:43:39.530Z,18.10
2022-12-22T05:44:48.261Z,19.98
2022-12-22T05:45:53.210Z,20.13
2022-12-22T05:46:55.901Z,19.20
2022-12-22T05:47:59.333Z,18.90
2022-12-22T05:49:08.218Z,17.65
2022-12-22T05:50:14.261Z,18.45
2022-12-22T05:51:16.799Z,18.15
2022-12-22T05:52:20.225Z,18.98
2022-12-22T05:53:37.308Z,18.23
2022-12-22T05:54:39.792Z,19.10
2022-12-22T05:55:43.205Z,17.17
2022-12-22T05:56:45.729Z,16.88
2022-12-22T05:57:49.337Z,16.90
2022-12-22T05:58:59.235Z,19.05
2022-12-22T06:00:01.741Z,17.77
2022-12-22T06:01:05.345Z,18.92
2022-12-22T06:02:08.067Z,18.88
2022-12-22T06:03:11.742Z,19.00
2022-12-22T06:04:21.433Z,18.15
2022-12-22T06:05:33.247Z,18.17
2022-12-22T06:06:35.744Z,19.42
2022-12-22T06:07:39.489Z,18.67
2022-12-22T06:08:42.069Z,19.30
2022-12-22T06:09:45.503Z,19.50
2022-12-22T06:10:55.273Z,19.88
2022-12-22T06:11:57.784Z,20.38
2022-12-22T06:13:01.223Z,19.90
2022-12-22T06:14:03.860Z,21.02
2022-12-22T06:15:08.221Z,20.92
2022-12-22T06:16:18.384Z,20.98
2022-12-22T06:17:21.828Z,21.48
2022-12-22T06:18:25.298Z,21.38
2022-12-22T06:19:27.845Z,21.65
2022-12-22T06:20:32.574Z,22.05
2022-12-22T06:21:41.251Z,21.40
2022-12-22T06:22:44.682Z,22.25
2022-12-22T06:24:15.245Z,20.80
2022-12-22T06:25:19.188Z,20.70
2022-12-22T06:26:28.229Z,20.38
2022-12-22T06:27:31.640Z,22.38
2022-12-22T06:28:34.266Z,20.63
2022-12-22T06:29:51.424Z,23.20
2022-12-22T06:30:54.359Z,21.60
2022-12-22T06:32:04.411Z,22.40
2022-12-22T06:33:13.272Z,21.42
2022-12-22T06:34:18.024Z,21.20
2022-12-22T06:35:20.551Z,20.95
2022-12-22T06:36:25.330Z,21.25
2022-12-22T06:37:27.757Z,21.13
2022-12-22T06:38:38.296Z,20.48
2022-12-22T06:39:41.923Z,20.23
2022-12-22T06:40:44.550Z,21.23
2022-12-22T06:42:05.865Z,20.35
2022-12-22T06:43:11.075Z,21.67
2022-12-22T06:44:20.263Z,17.73
2022-12-22T06:45:23.742Z,21.10
2022-12-22T06:46:26.621Z,20.77
2022-12-22T06:47:30.099Z,19.92
2022-12-22T06:48:39.248Z,20.08
2022-12-22T06:49:42.668Z,20.15
2022-12-22T06:50:45.174Z,20.58
2022-12-22T06:51:56.746Z,20.92
2022-12-22T06:52:59.277Z,19.67
2022-12-22T06:54:09.246Z,19.80
2022-12-22T06:55:12.925Z,19.10
2022-12-22T06:56:15.420Z,21.95
2022-12-22T06:57:18.890Z,22.35
2022-12-22T06:58:21.384Z,23.27
2022-12-22T06:59:31.427Z,24.40
2022-12-22T07:00:34.580Z,24.77
2022-12-22T07:01:38.161Z,25.40
2022-12-22T07:02:40.905Z,25.67
2022-12-22T07:03:44.541Z,25.55
2022-12-22T07:04:53.247Z,26.25
2022-12-22T07:05:56.816Z,27.08
2022-12-22T07:07:00.603Z,25.98
2022-12-22T07:08:08.416Z,27.05
2022-12-22T07:09:11.520Z,27.95
2022-12-22T07:10:21.251Z,26.92
2022-12-22T07:11:30.263Z,26.52
2022-12-22T07:12:33.674Z,25.17
2022-12-22T07:13:36.399Z,26.25
2022-12-22T07:14:39.838Z,26.90
2022-12-22T07:15:55.621Z,26.17
2022-12-22T07:17:03.422Z,27.08
2022-12-22T07:18:06.083Z,26.13
2022-12-22T07:19:09.619Z,27.02
2022-12-22T07:20:12.751Z,25.05
2022-12-22T07:21:23.325Z,26.13
2022-12-22T07:22:30.689Z,26.27
2022-12-22T07:23:33.875Z,26.42
2022-12-22T07:24:37.360Z,26.25
2022-12-22T07:25:39.933Z,28.15
2022-12-22T07:26:50.296Z,27.60
2022-12-22T07:27:52.804Z,28.30
2022-12-22T07:29:02.420Z,28.67
2022-12-22T07:30:18.244Z,28.45
2022-12-22T07:31:21.800Z,28.40
2022-12-22T07:32:31.396Z,28.58
2022-12-22T07:33:34.884Z,28.58
2022-12-22T07:34:37.448Z,29.80
2022-12-22T07:35:40.886Z,28.40
2022-12-22T07:36:44.339Z,29.15
2022-12-22T07:37:56.258Z,28.95
2022-12-22T07:38:59.727Z,29.75
2022-12-22T07:40:08.315Z,28.95
2022-12-22T07:41:26.534Z,29.48
2022-12-22T07:42:47.401Z,27.52
2022-12-22T07:43:50.853Z,28.77
2022-12-22T07:44:53.406Z,27.15
2022-12-22T07:46:03.403Z,28.10
2022-12-22T07:47:07.089Z,28.83
2022-12-22T07:48:25.158Z,29.00
2022-12-22T07:49:46.459Z,26.95
2022-12-22T07:50:56.295Z,28.75
2022-12-22T07:52:00.337Z,28.55
2022-12-22T07:53:06.407Z,27.85
2022-12-22T07:54:10.164Z,27.95
2022-12-22T07:55:14.360Z,29.80
2022-12-22T07:56:24.260Z,29.23
2022-12-22T07:57:27.693Z,27.90
2022-12-22T07:58:37.242Z,27.55
2022-12-22T07:59:40.692Z,26.27
2022-12-22T08:00:43.161Z,26.25
2022-12-22T08:01:47.134Z,25.65
2022-12-22T08:02:56.402Z,27.27
2022-12-22T08:03:59.854Z,25.63
2022-12-22T08:05:09.386Z,28.13
2022-12-22T08:06:13.080Z,27.10
2022-12-22T08:07:16.535Z,27.50
2022-12-22T08:08:21.369Z,27.08
2022-12-22T08:09:31.286Z,27.63
2022-12-22T08:10:35.151Z,27.95
2022-12-22T08:11:38.892Z,27.58
2022-12-22T08:12:42.349Z,25.95
2022-12-22T08:13:45.202Z,24.77
2022-12-22T08:14:55.275Z,25.85
2022-12-22T08:16:05.190Z,26.33
2022-12-22T08:17:08.776Z,26.45
2022-12-22T08:18:11.270Z,26.30
2022-12-22T08:19:20.526Z,25.95
2022-12-22T08:20:30.265Z,25.35
2022-12-22T08:21:33.711Z,25.38
2022-12-22T08:22:36.350Z,24.25
2022-12-22T08:23:41.102Z,24.95
2022-12-22T08:24:44.594Z,24.38
2022-12-22T08:25:56.344Z,23.92
2022-12-22T08:27:02.126Z,25.70
2022-12-22T08:28:04.726Z,24.80
2022-12-22T08:29:17.417Z,25.08
2022-12-22T08:30:34.287Z,23.80
2022-12-22T08:31:44.508Z,23.15
2022-12-22T08:32:48.901Z,22.80
2022-12-22T08:33:51.468Z,24.15
2022-12-22T08:34:55.020Z,25.60
2022-12-22T08:36:04.227Z,23.40
2022-12-22T08:37:20.308Z,22.70
2022-12-22T08:38:24.035Z,24.15
2022-12-22T08:39:29.744Z,25.23
2022-12-22T08:40:33.719Z,24.73
2022-12-22T08:41:55.700Z,22.58
2022-12-22T08:43:08.269Z,24.55
2022-12-22T08:44:11.023Z,24.00
2022-12-22T08:45:14.477Z,24.40
2022-12-22T08:46:17.114Z,23.52
2022-12-22T08:47:27.382Z,24.50
2022-12-22T08:48:31.199Z,25.13
2022-12-22T08:49:34.689Z,24.42
2022-12-22T08:50:37.257Z,24.75
2022-12-22T08:51:47.292Z,24.60
2022-12-22T08:52:50.756Z,25.17
2022-12-22T08:54:09.428Z,25.85
2022-12-22T08:55:14.371Z,26.33
2022-12-22T08:56:17.027Z,24.08
2022-12-22T08:57:27.327Z,25.42
2022-12-22T08:58:31.024Z,24.85
2022-12-22T08:59:33.581Z,24.55
2022-12-22T09:00:44.464Z,23.70
2022-12-22T09:01:51.165Z,24.08
2022-12-22T09:02:55.072Z,24.52
2022-12-22T09:03:57.757Z,24.40
2022-12-22T09:05:01.629Z,24.35
2022-12-22T09:06:12.284Z,24.73
2022-12-22T09:07:16.056Z,25.30
2022-12-22T09:08:25.299Z,23.88
2022-12-22T09:09:28.856Z,23.73
2022-12-22T09:10:34.145Z,22.58
2022-12-22T09:11:43.352Z,21.98
2022-12-22T09:12:47.897Z,22.95
2022-12-22T09:13:51.493Z,21.60
2022-12-22T09:14:55.172Z,23.83
2022-12-22T09:15:58.105Z,22.98
2022-12-22T09:17:08.301Z,24.75
2022-12-22T09:18:11.744Z,24.40
2022-12-22T09:19:14.505Z,24.95
2022-12-22T09:20:18.056Z,24.23
2022-12-22T09:21:20.669Z,22.95
2022-12-22T09:22:30.279Z,23.50
2022-12-22T09:23:33.133Z,23.17
2022-12-22T09:24:43.390Z,22.70
2022-12-22T09:25:47.210Z,23.55
2022-12-22T09:26:50.698Z,21.52
2022-12-22T09:27:53.230Z,23.25
2022-12-22T09:29:03.442Z,22.33
2022-12-22T09:30:20.394Z,21.85
2022-12-22T09:31:30.543Z,21.23
2022-12-22T09:32:34.013Z,21.65
2022-12-22T09:33:37.633Z,20.92
2022-12-22T09:34:47.329Z,21.90
2022-12-22T09:35:49.826Z,21.45
2022-12-22T09:36:53.428Z,22.50
2022-12-22T09:37:57.071Z,21.52
2022-12-22T09:39:00.714Z,21.83
2022-12-22T09:40:11.457Z,23.05
2022-12-22T09:41:25.658Z,21.70
2022-12-22T09:42:30.677Z,21.38
2022-12-22T09:43:34.107Z,21.77
2022-12-22T09:44:40.008Z,22.42
2022-12-22T09:45:42.818Z,22.95
2022-12-22T09:46:53.280Z,21.33
2022-12-22T09:48:02.275Z,19.85
2022-12-22T09:49:07.200Z,18.52
2022-12-22T09:50:18.214Z,18.95
2022-12-22T09:51:26.838Z,19.67
2022-12-22T09:52:47.311Z,19.15
2022-12-22T09:53:55.295Z,18.75
2022-12-22T09:54:57.775Z,18.23
2022-12-22T09:56:08.345Z,19.83
2022-12-22T09:57:13.918Z,19.90
2022-12-22T09:58:25.946Z,20.65
2022-12-22T09:59:31.349Z,19.17
2022-12-22T10:00:36.964Z,20.13
2022-12-22T10:01:57.514Z,19.95
2022-12-22T10:03:04.923Z,19.13
2022-12-22T10:04:17.328Z,19.70
2022-12-22T10:05:28.391Z,20.20
2022-12-22T10:06:35.879Z,19.63
2022-12-22T10:07:42.719Z,19.52
2022-12-22T10:08:46.369Z,20.23
2022-12-22T10:09:55.367Z,18.30
2022-12-22T10:10:59.074Z,20.50
2022-12-22T10:12:02.477Z,19.58
2022-12-22T10:13:07.593Z,19.55
2022-12-22T10:14:10.547Z,21.15
2022-12-22T10:15:22.205Z,20.35
2022-12-22T10:16:33.372Z,18.83
2022-12-22T10:17:38.540Z,19.10
2022-12-22T10:18:56.186Z,21.25
2022-12-22T10:20:10.891Z,20.45
2022-12-22T10:21:14.184Z,19.35
2022-12-22T10:22:35.283Z,19.90
2022-12-22T10:23:40.232Z,18.08
2022-12-22T10:24:43.710Z,17.40
2022-12-22T10:26:27.512Z,18.90
2022-12-22T10:27:32.413Z,17.27
2022-12-22T10:28:37.102Z,19.00
2022-12-22T10:30:01.264Z,18.92
2022-12-22T10:31:18.625Z,18.80
2022-12-22T10:32:25.011Z,17.60
2022-12-22T10:33:46.706Z,18.48
2022-12-22T10:35:00.873Z,18.40
2022-12-22T10:36:03.610Z,18.63
2022-12-22T10:37:07.539Z,19.15
2022-12-22T10:38:24.632Z,17.42
2022-12-22T10:39:36.301Z,19.50
2022-12-22T10:40:44.631Z,19.38
2022-12-22T10:41:56.317Z,18.38
2022-12-22T10:43:01.847Z,18.50
2022-12-22T10:44:09.701Z,17.90
2022-12-22T10:45:17.817Z,17.02
2022-12-22T10:46:28.469Z,16.95
2022-12-22T10:47:32.210Z,18.42
2022-12-22T10:48:37.489Z,19.13
2022-12-22T10:50:46.879Z,18.83
2022-12-22T10:51:59.333Z,17.67
2022-12-22T10:53:03.552Z,17.13
2022-12-22T10:54:06.377Z,18.40
2022-12-22T10:55:20.263Z,17.73
2022-12-22T10:56:24.410Z,17.67
2022-12-22T10:57:37.281Z,17.15
2022-12-22T10:58:48.436Z,16.98
2022-12-22T11:00:00.516Z,18.75
2022-12-22T11:01:04.724Z,19.15
2022-12-22T11:02:27.412Z,19.83
2022-12-22T11:03:32.325Z,20.40
2022-12-22T11:04:35.913Z,19.58
2022-12-22T11:05:46.278Z,19.80
2022-12-22T11:06:50.044Z,19.88
2022-12-22T11:08:00.292Z,18.85
2022-12-22T11:09:31.408Z,20.23
2022-12-22T11:10:33.163Z,15.77
2022-12-22T11:11:39.545Z,15.15
2022-12-22T11:12:54.352Z,16.73
2022-12-22T11:14:02.570Z,15.23
2022-12-22T11:15:11.657Z,15.38
2022-12-22T11:16:17.739Z,15.70
2022-12-22T11:17:23.983Z,16.48
2022-12-22T11:18:42.251Z,17.27
2022-12-22T11:19:55.218Z,16.48
2022-12-22T11:21:03.048Z,17.50
2022-12-22T11:22:07.767Z,16.10
2022-12-22T11:23:13.416Z,16.95
2022-12-22T11:24:31.277Z,16.70
2022-12-22T11:25:40.470Z,16.15
2022-12-22T11:26:48.041Z,16.75
2022-12-22T11:27:59.730Z,16.58
2022-12-22T11:29:07.631Z,17.10
2022-12-22T11:30:20.318Z,17.85
2022-12-22T11:31:47.485Z,16.83
2022-12-22T11:33:08.585Z,17.30
2022-12-22T11:34:21.206Z,18.45
2022-12-22T11:35:38.312Z,18.08
2022-12-22T11:36:52.283Z,17.95
2022-12-22T11:37:56.534Z,19.50
2022-12-22T11:39:10.289Z,19.90
2022-12-22T11:40:16.057Z,18.98
2022-12-22T11:41:30.138Z,19.23
2022-12-22T11:42:44.977Z,19.25
2022-12-22T11:44:03.312Z,18.35
2022-12-22T11:45:11.611Z,18.65
2022-12-22T11:46:21.730Z,19.00
2022-12-22T11:47:36.418Z,19.27
2022-12-22T11:48:59.645Z,18.98
2022-12-22T11:51:01.727Z,19.23
2022-12-22T11:51:53.071Z,19.17
2022-12-22T11:53:07.359Z,20.38
2022-12-22T11:54:21.865Z,20.48
2022-12-22T11:55:30.644Z,19.35
2022-12-22T11:56:36.088Z,20.65
2022-12-22T11:57:45.276Z,25.55
2022-12-22T11:59:01.336Z,24.20
2022-12-22T12:00:09.544Z,20.27
2022-12-22T12:01:25.635Z,21.33
2022-12-22T12:02:54.449Z,20.50
2022-12-22T12:04:17.487Z,21.00
2022-12-22T12:05:34.541Z,20.35
2022-12-22T12:06:46.692Z,22.70
2022-12-22T12:07:52.651Z,21.13
2022-12-22T12:09:04.122Z,19.63
2022-12-22T12:10:22.350Z,22.25
2022-12-22T12:11:30.528Z,21.13
2022-12-22T12:12:38.244Z,20.15
2022-12-22T12:13:46.812Z,21.67
2022-12-22T12:14:54.640Z,21.85
2022-12-22T12:16:08.458Z,22.50
2022-12-22T12:17:19.751Z,21.63
2022-12-22T12:18:32.944Z,21.35
2022-12-22T12:19:47.232Z,22.60
2022-12-22T12:21:06.336Z,19.90
2022-12-22T12:22:12.160Z,20.30
2022-12-22T12:23:20.828Z,21.05
2022-12-22T12:24:34.579Z,20.05
2022-12-22T12:25:47.368Z,20.02
2022-12-22T12:27:00.378Z,20.23
2022-12-22T12:28:10.633Z,21.55
2022-12-22T12:29:17.496Z,20.05
2022-12-22T12:30:42.292Z,19.08
2022-12-22T12:31:50.216Z,21.92
2022-12-22T12:33:01.318Z,21.50
2022-12-22T12:34:06.916Z,21.25
2022-12-22T12:35:21.583Z,20.42
2022-12-22T12:36:28.990Z,20.77
2022-12-22T12:37:41.377Z,19.77
2022-12-22T12:40:29.192Z,19.25
2022-12-22T12:41:35.363Z,18.95
2022-12-22T12:42:39.747Z,19.85
2022-12-22T12:43:50.369Z,18.73
2022-12-22T12:44:54.711Z,18.13
2022-12-22T12:45:57.460Z,17.77
2022-12-22T12:47:08.627Z,19.48
2022-12-22T12:48:30.729Z,19.60
2022-12-22T12:49:59.306Z,19.33
2022-12-22T12:51:10.321Z,19.63
2022-12-22T12:52:13.251Z,20.00
2022-12-22T12:53:16.856Z,20.65
2022-12-22T12:54:23.232Z,21.13
2022-12-22T12:55:35.297Z,20.38
2022-12-22T12:56:53.552Z,20.65
2022-12-22T12:57:56.255Z,20.42
2022-12-22T12:59:08.330Z,20.67
2022-12-22T13:00:32.611Z,19.65
2022-12-22T13:02:00.703Z,18.88
2022-12-22T13:03:05.104Z,18.67
2022-12-22T13:04:16.517Z,18.48
2022-12-22T13:05:33.191Z,19.50
2022-12-22T13:06:54.521Z,20.70
2022-12-22T13:08:10.591Z,19.63
2022-12-22T13:10:51.805Z,19.17
2022-12-22T13:12:13.711Z,19.67
2022-12-22T13:13:39.716Z,20.75
2022-12-22T13:15:09.396Z,25.48
2022-12-22T13:16:28.162Z,67.82
2022-12-22T13:17:34.518Z,40.70
2022-12-22T13:18:49.327Z,57.97
2022-12-22T13:19:53.745Z,68.05
2022-12-22T13:21:41.998Z,32.00
2022-12-22T13:22:29.188Z,31.42
2022-12-22T13:23:51.392Z,33.03
2022-12-22T13:25:01.229Z,28.45
2022-12-22T13:26:14.430Z,38.35
2022-12-22T13:27:17.941Z,49.75
2022-12-22T13:28:23.276Z,94.25
2022-12-22T13:29:30.605Z,60.88
2022-12-22T13:30:55.292Z,59.38
2022-12-22T13:32:07.415Z,64.65
2022-12-22T13:33:13.090Z,61.22
2022-12-22T13:34:57.274Z,60.10
2022-12-22T13:36:01.811Z,26.10
2022-12-22T13:37:06.672Z,38.15
2022-12-22T13:38:34.362Z,27.50
2022-12-22T13:39:44.318Z,20.58
2022-12-22T13:40:47.816Z,22.00
2022-12-22T13:41:50.974Z,22.88
2022-12-22T13:42:56.307Z,22.98
2022-12-22T13:44:02.452Z,23.75
2022-12-22T13:45:12.404Z,24.35
2022-12-22T13:46:15.994Z,23.17
2022-12-22T13:47:18.652Z,24.58
2022-12-22T13:48:23.841Z,22.75
2022-12-22T13:49:51.647Z,24.10
2022-12-22T13:50:59.323Z,24.13
2022-12-22T13:52:05.412Z,23.35
2022-12-22T13:53:13.008Z,23.38
2022-12-22T13:54:37.338Z,23.52
2022-12-22T13:55:40.834Z,23.65
2022-12-22T13:56:52.325Z,24.02
2022-12-22T13:57:58.593Z,25.17
2022-12-22T13:59:02.262Z,23.83
2022-12-22T14:00:12.364Z,24.67
2022-12-22T14:01:17.272Z,23.70
2022-12-22T14:02:22.502Z,25.75
2022-12-22T14:03:58.718Z,26.23
2022-12-22T14:05:05.844Z,26.63
2022-12-22T14:06:20.513Z,27.40
2022-12-22T14:07:23.198Z,26.38
2022-12-22T14:08:26.634Z,29.75
2022-12-22T14:09:37.364Z,31.50
2022-12-22T14:10:43.478Z,29.65
2022-12-22T14:11:52.011Z,28.92
2022-12-22T14:12:56.435Z,30.73
2022-12-22T14:13:59.898Z,30.02
2022-12-22T14:15:11.378Z,31.70
2022-12-22T14:16:14.797Z,34.20
2022-12-22T14:17:21.183Z,34.50
2022-12-22T14:18:26.723Z,34.88
2022-12-22T14:19:32.976Z,32.90
2022-12-22T14:20:43.411Z,31.85
2022-12-22T14:21:48.286Z,29.65
2022-12-22T14:22:53.294Z,32.15
2022-12-22T14:23:56.762Z,32.65
2022-12-22T14:25:03.447Z,32.63
2022-12-22T14:26:14.328Z,33.25
2022-12-22T14:27:19.592Z,31.02
2022-12-22T14:28:27.378Z,34.33
2022-12-22T14:29:31.305Z,31.95
2022-12-22T14:30:50.854Z,32.05
2022-12-22T14:32:01.694Z,30.88
2022-12-22T14:33:16.190Z,29.92
2022-12-22T14:34:25.774Z,29.73
2022-12-22T14:35:31.723Z,30.05
2022-12-22T14:36:43.348Z,29.75
2022-12-22T14:37:46.839Z,29.13
2022-12-22T14:38:59.115Z,28.65
2022-12-22T14:40:06.797Z,29.23
2022-12-22T14:41:41.377Z,29.55
2022-12-22T14:42:45.000Z,28.67
2022-12-22T14:43:49.860Z,29.23
2022-12-22T14:45:00.340Z,29.55
2022-12-22T14:46:05.669Z,28.00
2022-12-22T14:47:17.589Z,28.73
2022-12-22T14:48:24.845Z,28.48
2022-12-22T14:49:35.369Z,29.77
2022-12-22T14:50:46.356Z,30.73
2022-12-22T14:52:01.084Z,28.70
2022-12-22T14:53:06.766Z,31.83
2022-12-22T14:54:20.071Z,31.67
2022-12-22T14:55:34.371Z,29.25
2022-12-22T14:56:48.459Z,27.80
2022-12-22T14:57:53.474Z,26.52
2022-12-22T14:59:10.845Z,28.55
2022-12-22T15:00:37.368Z,29.05
2022-12-22T15:01:47.437Z,28.38
2022-12-22T15:02:51.249Z,27.92
2022-12-22T15:04:03.069Z,29.35
2022-12-22T15:05:17.416Z,25.10
2022-12-22T15:06:31.386Z,25.13
2022-12-22T15:10:03.785Z,25.70
2022-12-22T15:10:50.820Z,25.52
2022-12-22T15:12:01.395Z,25.05
2022-12-22T15:13:06.817Z,26.70
2022-12-22T15:14:12.767Z,27.77
2022-12-22T15:15:18.295Z,27.42
2022-12-22T15:16:22.278Z,25.17
2022-12-22T15:17:33.406Z,26.67
2022-12-22T15:18:36.858Z,27.80
2022-12-22T15:19:39.381Z,25.75
2022-12-22T15:20:43.038Z,28.08
2022-12-22T15:21:45.535Z,27.08
2022-12-22T15:22:55.373Z,28.30
2022-12-22T15:23:57.860Z,26.92
2022-12-22T15:25:01.401Z,25.95
2022-12-22T15:26:06.368Z,26.80
2022-12-22T15:27:08.887Z,24.58
2022-12-22T15:28:19.391Z,23.73